sensor_id;sensor_type;location;lat;lon;timestamp;P1;durP1;ratioP1;P2;durP2;ratioP2
69392;SDS011;56582;44.624;20.378;2023-04-24T10:56:30;257.20;;;39.95;;
69392;SDS011;56582;44.624;20.378;2023-04-24T10:59:34;18.43;;;8.10;;
69392;SDS011;56582;44.624;20.378;2023-04-24T11:02:38;9.68;;;7.18;;
69392;SDS011;56582;44.624;20.378;2023-04-24T11:08:47;13.10;;;8.40;;
69392;SDS011;56582;44.624;20.378;2023-04-24T11:11:18;15.35;;;10.48;;
69392;SDS011;56582;44.624;20.378;2023-04-24T11:16:29;18.55;;;12.88;;
69392;SDS011;56582;44.624;20.378;2023-04-24T11:19:08;34.92;;;20.02;;
69392;SDS011;56582;44.624;20.378;2023-04-24T11:21:43;35.05;;;19.55;;
69392;SDS011;56582;44.624;20.378;2023-04-24T11:27:15;14.77;;;8.60;;
69392;SDS011;56582;44.624;20.378;2023-04-24T11:32:18;12.68;;;8.00;;
69392;SDS011;56582;44.624;20.378;2023-04-24T11:34:50;11.55;;;7.75;;
69392;SDS011;56582;44.624;20.378;2023-04-24T11:37:20;9.93;;;6.63;;
69392;SDS011;56582;44.624;20.378;2023-04-24T11:39:46;8.27;;;5.50;;
69392;SDS011;56582;44.624;20.378;2023-04-24T11:42:14;9.43;;;5.80;;
69392;SDS011;56582;44.624;20.378;2023-04-24T11:44:41;7.68;;;5.38;;
69392;SDS011;56582;44.624;20.378;2023-04-24T11:47:07;15.77;;;11.13;;
69392;SDS011;56582;44.624;20.378;2023-04-24T11:49:34;10.10;;;6.40;;
69392;SDS011;56582;44.624;20.378;2023-04-24T11:52:01;12.27;;;7.35;;
69392;SDS011;56582;44.624;20.378;2023-04-24T11:54:27;9.35;;;5.13;;
69392;SDS011;56582;44.624;20.378;2023-04-24T11:56:53;9.17;;;5.67;;
69392;SDS011;56582;44.624;20.378;2023-04-24T11:59:18;9.83;;;6.03;;
69392;SDS011;56582;44.624;20.378;2023-04-24T12:01:47;9.57;;;6.53;;
69392;SDS011;56582;44.624;20.378;2023-04-24T12:04:14;9.45;;;6.78;;
69392;SDS011;56582;44.624;20.378;2023-04-24T12:06:58;9.52;;;6.82;;
69392;SDS011;56582;44.624;20.378;2023-04-24T12:09:24;7.65;;;5.60;;
69392;SDS011;56582;44.624;20.378;2023-04-24T12:11:56;9.75;;;6.38;;
69392;SDS011;56582;44.624;20.378;2023-04-24T12:14:22;42.07;;;10.57;;
69392;SDS011;56582;44.624;20.378;2023-04-24T12:16:48;27.00;;;9.30;;
69392;SDS011;56582;44.624;20.378;2023-04-24T12:19:21;26.13;;;9.88;;
69392;SDS011;56582;44.624;20.378;2023-04-24T12:22:03;13.98;;;6.72;;
69392;SDS011;56582;44.624;20.378;2023-04-24T12:24:30;14.35;;;8.85;;
69392;SDS011;56582;44.624;20.378;2023-04-24T12:26:56;19.93;;;9.90;;
69392;SDS011;56582;44.624;20.378;2023-04-24T12:29:23;20.52;;;8.85;;
69392;SDS011;56582;44.624;20.378;2023-04-24T12:31:50;32.08;;;11.02;;
69392;SDS011;56582;44.624;20.378;2023-04-24T12:34:20;20.02;;;8.93;;
69392;SDS011;56582;44.624;20.378;2023-04-24T12:36:47;9.75;;;7.68;;
69392;SDS011;56582;44.624;20.378;2023-04-24T12:39:16;10.53;;;7.37;;
69392;SDS011;56582;44.624;20.378;2023-04-24T12:41:57;10.20;;;7.63;;
69392;SDS011;56582;44.624;20.378;2023-04-24T12:44:34;10.32;;;7.10;;
69392;SDS011;56582;44.624;20.378;2023-04-24T12:47:00;10.10;;;6.30;;
69392;SDS011;56582;44.624;20.378;2023-04-24T12:49:26;10.35;;;6.78;;
69392;SDS011;56582;44.624;20.378;2023-04-24T12:51:52;9.33;;;6.50;;
69392;SDS011;56582;44.624;20.378;2023-04-24T12:54:18;9.45;;;6.72;;
69392;SDS011;56582;44.624;20.378;2023-04-24T12:56:44;9.10;;;6.20;;
69392;SDS011;56582;44.624;20.378;2023-04-24T12:59:09;8.67;;;6.90;;
69392;SDS011;56582;44.624;20.378;2023-04-24T13:01:35;8.53;;;5.83;;
69392;SDS011;56582;44.624;20.378;2023-04-24T13:04:00;8.10;;;5.93;;
69392;SDS011;56582;44.624;20.378;2023-04-24T13:06:26;15.75;;;8.60;;
69392;SDS011;56582;44.624;20.378;2023-04-24T13:08:51;8.90;;;5.90;;
69392;SDS011;56582;44.624;20.378;2023-04-24T13:11:17;11.17;;;6.87;;
69392;SDS011;56582;44.624;20.378;2023-04-24T13:13:42;11.75;;;6.72;;
69392;SDS011;56582;44.624;20.378;2023-04-24T13:16:08;8.13;;;5.97;;
69392;SDS011;56582;44.624;20.378;2023-04-24T13:18:34;13.80;;;7.45;;
69392;SDS011;56582;44.624;20.378;2023-04-24T13:20:59;8.60;;;6.10;;
69392;SDS011;56582;44.624;20.378;2023-04-24T13:23:25;13.10;;;7.20;;
69392;SDS011;56582;44.624;20.378;2023-04-24T13:25:51;10.40;;;6.32;;
69392;SDS011;56582;44.624;20.378;2023-04-24T13:28:16;16.57;;;7.37;;
69392;SDS011;56582;44.624;20.378;2023-04-24T13:30:42;32.00;;;12.77;;
69392;SDS011;56582;44.624;20.378;2023-04-24T13:33:07;22.20;;;9.73;;
69392;SDS011;56582;44.624;20.378;2023-04-24T13:35:32;9.43;;;6.40;;
69392;SDS011;56582;44.624;20.378;2023-04-24T13:37:58;7.63;;;5.40;;
69392;SDS011;56582;44.624;20.378;2023-04-24T13:40:23;10.90;;;6.25;;
69392;SDS011;56582;44.624;20.378;2023-04-24T13:42:49;8.73;;;5.33;;
69392;SDS011;56582;44.624;20.378;2023-04-24T13:45:15;6.60;;;4.97;;
69392;SDS011;56582;44.624;20.378;2023-04-24T13:47:40;8.15;;;4.72;;
69392;SDS011;56582;44.624;20.378;2023-04-24T13:50:07;10.17;;;4.90;;
69392;SDS011;56582;44.624;20.378;2023-04-24T13:52:33;8.50;;;5.47;;
69392;SDS011;56582;44.624;20.378;2023-04-24T13:54:59;7.60;;;5.33;;
69392;SDS011;56582;44.624;20.378;2023-04-24T13:57:24;8.32;;;5.60;;
69392;SDS011;56582;44.624;20.378;2023-04-24T13:59:50;7.27;;;5.17;;
69392;SDS011;56582;44.624;20.378;2023-04-24T14:02:15;7.67;;;5.20;;
69392;SDS011;56582;44.624;20.378;2023-04-24T14:04:40;9.65;;;5.25;;
69392;SDS011;56582;44.624;20.378;2023-04-24T14:07:06;10.97;;;5.33;;
69392;SDS011;56582;44.624;20.378;2023-04-24T14:09:32;18.17;;;6.90;;
69392;SDS011;56582;44.624;20.378;2023-04-24T14:11:58;16.93;;;6.13;;
69392;SDS011;56582;44.624;20.378;2023-04-24T14:14:26;24.83;;;8.60;;
69392;SDS011;56582;44.624;20.378;2023-04-24T14:16:51;12.43;;;6.17;;
69392;SDS011;56582;44.624;20.378;2023-04-24T14:19:19;17.27;;;6.10;;
69392;SDS011;56582;44.624;20.378;2023-04-24T14:21:46;12.43;;;5.67;;
69392;SDS011;56582;44.624;20.378;2023-04-24T14:24:11;17.85;;;7.05;;
69392;SDS011;56582;44.624;20.378;2023-04-24T14:26:36;21.50;;;8.20;;
69392;SDS011;56582;44.624;20.378;2023-04-24T14:29:02;9.13;;;5.63;;
69392;SDS011;56582;44.624;20.378;2023-04-24T14:31:27;25.87;;;8.43;;
69392;SDS011;56582;44.624;20.378;2023-04-24T14:33:53;12.43;;;6.32;;
69392;SDS011;56582;44.624;20.378;2023-04-24T14:36:18;21.73;;;7.53;;
69392;SDS011;56582;44.624;20.378;2023-04-24T14:38:44;8.63;;;5.13;;
69392;SDS011;56582;44.624;20.378;2023-04-24T14:41:10;17.23;;;7.53;;
69392;SDS011;56582;44.624;20.378;2023-04-24T14:43:36;34.65;;;10.52;;
69392;SDS011;56582;44.624;20.378;2023-04-24T14:46:02;11.37;;;6.33;;
69392;SDS011;56582;44.624;20.378;2023-04-24T14:48:28;11.15;;;5.78;;
69392;SDS011;56582;44.624;20.378;2023-04-24T14:50:53;50.00;;;11.70;;
69392;SDS011;56582;44.624;20.378;2023-04-24T14:53:19;10.30;;;5.43;;
69392;SDS011;56582;44.624;20.378;2023-04-24T14:55:44;8.90;;;6.32;;
69392;SDS011;56582;44.624;20.378;2023-04-24T14:58:10;11.37;;;5.60;;
69392;SDS011;56582;44.624;20.378;2023-04-24T15:00:36;11.20;;;6.03;;
69392;SDS011;56582;44.624;20.378;2023-04-24T15:03:01;10.23;;;5.80;;
69392;SDS011;56582;44.624;20.378;2023-04-24T15:05:27;8.87;;;5.80;;
69392;SDS011;56582;44.624;20.378;2023-04-24T15:07:52;8.73;;;5.63;;
69392;SDS011;56582;44.624;20.378;2023-04-24T15:10:18;7.97;;;5.30;;
69392;SDS011;56582;44.624;20.378;2023-04-24T15:12:43;8.13;;;4.77;;
69392;SDS011;56582;44.624;20.378;2023-04-24T15:15:09;10.80;;;5.78;;
69392;SDS011;56582;44.624;20.378;2023-04-24T15:17:35;9.13;;;5.50;;
69392;SDS011;56582;44.624;20.378;2023-04-24T15:20:00;7.97;;;5.50;;
69392;SDS011;56582;44.624;20.378;2023-04-24T15:22:26;8.27;;;5.30;;
69392;SDS011;56582;44.624;20.378;2023-04-24T15:24:51;6.63;;;4.63;;
69392;SDS011;56582;44.624;20.378;2023-04-24T15:27:17;10.53;;;5.70;;
69392;SDS011;56582;44.624;20.378;2023-04-24T15:29:42;7.28;;;4.95;;
69392;SDS011;56582;44.624;20.378;2023-04-24T15:32:08;7.40;;;5.33;;
69392;SDS011;56582;44.624;20.378;2023-04-24T15:34:33;7.13;;;4.88;;
69392;SDS011;56582;44.624;20.378;2023-04-24T15:37:00;7.20;;;4.60;;
69392;SDS011;56582;44.624;20.378;2023-04-24T15:39:25;6.20;;;5.28;;
69392;SDS011;56582;44.624;20.378;2023-04-24T15:41:51;9.15;;;5.05;;
69392;SDS011;56582;44.624;20.378;2023-04-24T15:44:18;6.55;;;5.25;;
69392;SDS011;56582;44.624;20.378;2023-04-24T15:46:44;7.20;;;5.18;;
69392;SDS011;56582;44.624;20.378;2023-04-24T15:49:10;7.17;;;4.60;;
69392;SDS011;56582;44.624;20.378;2023-04-24T15:51:35;6.17;;;4.70;;
69392;SDS011;56582;44.624;20.378;2023-04-24T15:54:01;7.65;;;5.47;;
69392;SDS011;56582;44.624;20.378;2023-04-24T15:56:27;7.43;;;4.47;;
69392;SDS011;56582;44.624;20.378;2023-04-24T15:58:52;8.30;;;4.78;;
69392;SDS011;56582;44.624;20.378;2023-04-24T16:01:18;7.97;;;5.67;;
69392;SDS011;56582;44.624;20.378;2023-04-24T16:03:43;7.83;;;5.33;;
69392;SDS011;56582;44.624;20.378;2023-04-24T16:06:10;7.60;;;4.88;;
69392;SDS011;56582;44.624;20.378;2023-04-24T16:08:36;7.93;;;5.20;;
69392;SDS011;56582;44.624;20.378;2023-04-24T16:11:01;7.53;;;4.68;;
69392;SDS011;56582;44.624;20.378;2023-04-24T16:13:26;12.67;;;4.80;;
69392;SDS011;56582;44.624;20.378;2023-04-24T16:15:53;9.15;;;4.72;;
69392;SDS011;56582;44.624;20.378;2023-04-24T16:18:19;7.85;;;5.20;;
69392;SDS011;56582;44.624;20.378;2023-04-24T16:20:45;7.70;;;4.80;;
69392;SDS011;56582;44.624;20.378;2023-04-24T16:23:10;7.23;;;5.03;;
69392;SDS011;56582;44.624;20.378;2023-04-24T16:25:36;8.80;;;4.95;;
69392;SDS011;56582;44.624;20.378;2023-04-24T16:28:01;7.60;;;5.10;;
69392;SDS011;56582;44.624;20.378;2023-04-24T16:30:27;9.03;;;4.90;;
69392;SDS011;56582;44.624;20.378;2023-04-24T16:32:52;10.15;;;5.85;;
69392;SDS011;56582;44.624;20.378;2023-04-24T16:35:18;8.00;;;5.53;;
69392;SDS011;56582;44.624;20.378;2023-04-24T16:37:43;7.77;;;5.50;;
69392;SDS011;56582;44.624;20.378;2023-04-24T16:40:09;8.73;;;5.90;;
69392;SDS011;56582;44.624;20.378;2023-04-24T16:42:35;8.93;;;5.87;;
69392;SDS011;56582;44.624;20.378;2023-04-24T16:45:02;7.47;;;5.45;;
69392;SDS011;56582;44.624;20.378;2023-04-24T16:47:28;8.05;;;5.82;;
69392;SDS011;56582;44.624;20.378;2023-04-24T16:49:53;9.10;;;6.70;;
69392;SDS011;56582;44.624;20.378;2023-04-24T16:52:19;9.13;;;6.23;;
69392;SDS011;56582;44.624;20.378;2023-04-24T16:54:44;9.23;;;5.85;;
69392;SDS011;56582;44.624;20.378;2023-04-24T16:57:10;8.97;;;6.60;;
69392;SDS011;56582;44.624;20.378;2023-04-24T16:59:36;9.60;;;6.10;;
69392;SDS011;56582;44.624;20.378;2023-04-24T17:02:02;10.15;;;6.60;;
69392;SDS011;56582;44.624;20.378;2023-04-24T17:04:27;9.33;;;6.80;;
69392;SDS011;56582;44.624;20.378;2023-04-24T17:06:53;9.55;;;6.38;;
69392;SDS011;56582;44.624;20.378;2023-04-24T17:09:19;9.73;;;6.68;;
69392;SDS011;56582;44.624;20.378;2023-04-24T17:11:45;11.97;;;6.90;;
69392;SDS011;56582;44.624;20.378;2023-04-24T17:14:10;11.13;;;6.97;;
69392;SDS011;56582;44.624;20.378;2023-04-24T17:16:36;11.70;;;7.97;;
69392;SDS011;56582;44.624;20.378;2023-04-24T17:19:02;17.67;;;10.70;;
69392;SDS011;56582;44.624;20.378;2023-04-24T17:21:28;11.05;;;7.38;;
69392;SDS011;56582;44.624;20.378;2023-04-24T17:23:54;10.03;;;6.60;;
69392;SDS011;56582;44.624;20.378;2023-04-24T17:26:19;10.23;;;7.68;;
69392;SDS011;56582;44.624;20.378;2023-04-24T17:28:45;12.07;;;8.07;;
69392;SDS011;56582;44.624;20.378;2023-04-24T17:31:11;10.97;;;7.40;;
69392;SDS011;56582;44.624;20.378;2023-04-24T17:33:36;14.80;;;10.03;;
69392;SDS011;56582;44.624;20.378;2023-04-24T17:36:02;12.77;;;8.73;;
69392;SDS011;56582;44.624;20.378;2023-04-24T17:38:27;12.68;;;8.35;;
69392;SDS011;56582;44.624;20.378;2023-04-24T17:40:54;14.43;;;9.73;;
69392;SDS011;56582;44.624;20.378;2023-04-24T17:43:20;12.63;;;8.40;;
69392;SDS011;56582;44.624;20.378;2023-04-24T17:45:46;12.10;;;8.50;;
69392;SDS011;56582;44.624;20.378;2023-04-24T17:48:13;18.75;;;12.45;;
69392;SDS011;56582;44.624;20.378;2023-04-24T17:50:39;20.42;;;12.63;;
69392;SDS011;56582;44.624;20.378;2023-04-24T17:53:05;17.10;;;11.10;;
69392;SDS011;56582;44.624;20.378;2023-04-24T17:55:31;15.13;;;9.73;;
69392;SDS011;56582;44.624;20.378;2023-04-24T17:57:58;15.13;;;10.55;;
69392;SDS011;56582;44.624;20.378;2023-04-24T18:00:25;15.60;;;10.15;;
69392;SDS011;56582;44.624;20.378;2023-04-24T18:02:51;13.17;;;9.57;;
69392;SDS011;56582;44.624;20.378;2023-04-24T18:05:19;13.68;;;8.80;;
69392;SDS011;56582;44.624;20.378;2023-04-24T18:07:44;13.32;;;10.23;;
69392;SDS011;56582;44.624;20.378;2023-04-24T18:10:10;15.10;;;10.10;;
69392;SDS011;56582;44.624;20.378;2023-04-24T18:12:35;14.50;;;9.70;;
69392;SDS011;56582;44.624;20.378;2023-04-24T18:15:01;14.68;;;9.02;;
69392;SDS011;56582;44.624;20.378;2023-04-24T18:17:26;16.93;;;10.80;;
69392;SDS011;56582;44.624;20.378;2023-04-24T18:19:52;17.90;;;11.10;;
69392;SDS011;56582;44.624;20.378;2023-04-24T18:22:17;17.65;;;10.20;;
69392;SDS011;56582;44.624;20.378;2023-04-24T18:24:42;14.40;;;9.17;;
69392;SDS011;56582;44.624;20.378;2023-04-24T18:30:21;14.45;;;10.05;;
69392;SDS011;56582;44.624;20.378;2023-04-24T18:36:45;19.27;;;10.27;;
69392;SDS011;56582;44.624;20.378;2023-04-24T18:40:05;17.40;;;10.57;;
69392;SDS011;56582;44.624;20.378;2023-04-24T18:42:30;17.70;;;11.50;;
69392;SDS011;56582;44.624;20.378;2023-04-24T18:45:04;14.15;;;9.48;;
69392;SDS011;56582;44.624;20.378;2023-04-24T18:47:57;16.58;;;9.80;;
69392;SDS011;56582;44.624;20.378;2023-04-24T18:50:21;17.08;;;11.25;;
69392;SDS011;56582;44.624;20.378;2023-04-24T18:52:50;14.90;;;10.13;;
69392;SDS011;56582;44.624;20.378;2023-04-24T18:58:07;14.07;;;9.50;;
69392;SDS011;56582;44.624;20.378;2023-04-24T19:00:32;16.10;;;9.70;;
69392;SDS011;56582;44.624;20.378;2023-04-24T19:02:58;14.83;;;9.63;;
69392;SDS011;56582;44.624;20.378;2023-04-24T19:05:23;15.23;;;9.63;;
69392;SDS011;56582;44.624;20.378;2023-04-24T19:07:49;14.73;;;9.20;;
69392;SDS011;56582;44.624;20.378;2023-04-24T19:10:24;15.77;;;9.73;;
69392;SDS011;56582;44.624;20.378;2023-04-24T19:12:52;14.37;;;8.60;;
69392;SDS011;56582;44.624;20.378;2023-04-24T19:15:23;15.80;;;10.13;;
69392;SDS011;56582;44.624;20.378;2023-04-24T19:18:00;13.25;;;8.88;;
69392;SDS011;56582;44.624;20.378;2023-04-24T19:20:25;11.60;;;8.38;;
69392;SDS011;56582;44.624;20.378;2023-04-24T19:26:08;12.77;;;8.03;;
69392;SDS011;56582;44.624;20.378;2023-04-24T19:28:38;13.57;;;9.75;;
69392;SDS011;56582;44.624;20.378;2023-04-24T19:31:06;12.57;;;8.60;;
69392;SDS011;56582;44.624;20.378;2023-04-24T19:33:32;14.33;;;8.83;;
69392;SDS011;56582;44.624;20.378;2023-04-24T19:35:58;11.65;;;8.75;;
69392;SDS011;56582;44.624;20.378;2023-04-24T19:38:27;12.50;;;8.27;;
69392;SDS011;56582;44.624;20.378;2023-04-24T19:40:53;13.63;;;8.68;;
69392;SDS011;56582;44.624;20.378;2023-04-24T19:43:21;13.00;;;8.98;;
69392;SDS011;56582;44.624;20.378;2023-04-24T19:45:46;11.67;;;8.47;;
69392;SDS011;56582;44.624;20.378;2023-04-24T19:48:12;11.17;;;8.47;;
69392;SDS011;56582;44.624;20.378;2023-04-24T19:50:42;12.90;;;8.15;;
69392;SDS011;56582;44.624;20.378;2023-04-24T19:53:08;12.48;;;8.50;;
69392;SDS011;56582;44.624;20.378;2023-04-24T19:55:33;15.07;;;8.73;;
69392;SDS011;56582;44.624;20.378;2023-04-24T19:58:01;11.88;;;8.00;;
69392;SDS011;56582;44.624;20.378;2023-04-24T20:00:26;12.23;;;8.38;;
69392;SDS011;56582;44.624;20.378;2023-04-24T20:02:52;13.40;;;8.97;;
69392;SDS011;56582;44.624;20.378;2023-04-24T20:05:17;13.43;;;8.00;;
69392;SDS011;56582;44.624;20.378;2023-04-24T20:07:43;13.15;;;8.30;;
69392;SDS011;56582;44.624;20.378;2023-04-24T20:10:10;13.35;;;8.63;;
69392;SDS011;56582;44.624;20.378;2023-04-24T20:12:35;11.47;;;8.40;;
69392;SDS011;56582;44.624;20.378;2023-04-24T20:15:03;12.20;;;8.23;;
69392;SDS011;56582;44.624;20.378;2023-04-24T20:17:31;12.17;;;7.77;;
69392;SDS011;56582;44.624;20.378;2023-04-24T20:19:59;11.18;;;8.43;;
69392;SDS011;56582;44.624;20.378;2023-04-24T20:22:25;12.35;;;8.98;;
69392;SDS011;56582;44.624;20.378;2023-04-24T20:24:50;12.63;;;8.33;;
69392;SDS011;56582;44.624;20.378;2023-04-24T20:27:16;13.88;;;8.88;;
69392;SDS011;56582;44.624;20.378;2023-04-24T20:29:47;11.43;;;9.03;;
69392;SDS011;56582;44.624;20.378;2023-04-24T20:32:22;13.70;;;9.20;;
69392;SDS011;56582;44.624;20.378;2023-04-24T20:34:48;11.38;;;8.13;;
69392;SDS011;56582;44.624;20.378;2023-04-24T20:37:17;13.65;;;8.88;;
69392;SDS011;56582;44.624;20.378;2023-04-24T20:39:48;12.20;;;8.40;;
69392;SDS011;56582;44.624;20.378;2023-04-24T20:42:16;12.38;;;8.30;;
69392;SDS011;56582;44.624;20.378;2023-04-24T20:44:42;11.70;;;8.38;;
69392;SDS011;56582;44.624;20.378;2023-04-24T20:47:28;12.25;;;8.60;;
69392;SDS011;56582;44.624;20.378;2023-04-24T20:50:05;13.70;;;8.52;;
69392;SDS011;56582;44.624;20.378;2023-04-24T20:55:21;12.15;;;8.43;;
69392;SDS011;56582;44.624;20.378;2023-04-24T20:58:00;11.90;;;8.80;;
69392;SDS011;56582;44.624;20.378;2023-04-24T21:00:55;12.73;;;9.20;;
69392;SDS011;56582;44.624;20.378;2023-04-24T21:03:45;12.00;;;8.20;;
69392;SDS011;56582;44.624;20.378;2023-04-24T21:06:10;15.93;;;10.63;;
69392;SDS011;56582;44.624;20.378;2023-04-24T21:08:36;12.37;;;8.80;;
69392;SDS011;56582;44.624;20.378;2023-04-24T21:11:02;13.57;;;9.38;;
69392;SDS011;56582;44.624;20.378;2023-04-24T21:13:33;17.13;;;10.37;;
69392;SDS011;56582;44.624;20.378;2023-04-24T21:16:07;14.85;;;10.38;;
69392;SDS011;56582;44.624;20.378;2023-04-24T21:18:33;17.17;;;9.90;;
69392;SDS011;56582;44.624;20.378;2023-04-24T21:21:01;15.67;;;9.83;;
69392;SDS011;56582;44.624;20.378;2023-04-24T21:23:27;17.02;;;10.15;;
69392;SDS011;56582;44.624;20.378;2023-04-24T21:25:56;18.03;;;10.33;;
69392;SDS011;56582;44.624;20.378;2023-04-24T21:28:21;15.88;;;10.55;;
69392;SDS011;56582;44.624;20.378;2023-04-24T21:30:49;16.05;;;10.45;;
69392;SDS011;56582;44.624;20.378;2023-04-24T21:33:17;18.25;;;10.65;;
69392;SDS011;56582;44.624;20.378;2023-04-24T21:35:42;18.20;;;11.27;;
69392;SDS011;56582;44.624;20.378;2023-04-24T21:38:11;18.30;;;11.27;;
69392;SDS011;56582;44.624;20.378;2023-04-24T21:40:47;19.38;;;12.68;;
69392;SDS011;56582;44.624;20.378;2023-04-24T21:43:16;20.60;;;12.03;;
69392;SDS011;56582;44.624;20.378;2023-04-24T21:45:42;18.02;;;12.00;;
69392;SDS011;56582;44.624;20.378;2023-04-24T21:48:10;21.73;;;14.40;;
69392;SDS011;56582;44.624;20.378;2023-04-24T21:50:44;21.97;;;13.77;;
69392;SDS011;56582;44.624;20.378;2023-04-24T21:53:15;19.85;;;13.65;;
69392;SDS011;56582;44.624;20.378;2023-04-24T21:55:41;19.42;;;13.23;;
69392;SDS011;56582;44.624;20.378;2023-04-24T21:58:09;20.75;;;13.85;;
69392;SDS011;56582;44.624;20.378;2023-04-24T22:00:38;19.05;;;13.65;;
69392;SDS011;56582;44.624;20.378;2023-04-24T22:03:08;21.70;;;13.53;;
69392;SDS011;56582;44.624;20.378;2023-04-24T22:05:36;21.23;;;14.00;;
69392;SDS011;56582;44.624;20.378;2023-04-24T22:08:10;20.80;;;14.30;;
69392;SDS011;56582;44.624;20.378;2023-04-24T22:10:51;21.40;;;13.40;;
69392;SDS011;56582;44.624;20.378;2023-04-24T22:13:17;20.30;;;12.65;;
69392;SDS011;56582;44.624;20.378;2023-04-24T22:15:45;18.25;;;13.38;;
69392;SDS011;56582;44.624;20.378;2023-04-24T22:18:28;20.20;;;12.75;;
69392;SDS011;56582;44.624;20.378;2023-04-24T22:21:05;18.43;;;11.90;;
69392;SDS011;56582;44.624;20.378;2023-04-24T22:23:30;18.15;;;10.57;;
69392;SDS011;56582;44.624;20.378;2023-04-24T22:25:59;16.10;;;10.35;;
69392;SDS011;56582;44.624;20.378;2023-04-24T22:28:24;13.40;;;9.80;;
69392;SDS011;56582;44.624;20.378;2023-04-24T22:30:52;13.37;;;9.03;;
69392;SDS011;56582;44.624;20.378;2023-04-24T22:33:18;12.57;;;9.48;;
69392;SDS011;56582;44.624;20.378;2023-04-24T22:35:46;13.63;;;9.33;;
69392;SDS011;56582;44.624;20.378;2023-04-24T22:38:11;12.10;;;8.32;;
69392;SDS011;56582;44.624;20.378;2023-04-24T22:40:37;11.87;;;8.93;;
69392;SDS011;56582;44.624;20.378;2023-04-24T22:43:08;13.30;;;8.60;;
69392;SDS011;56582;44.624;20.378;2023-04-24T22:45:37;15.63;;;10.20;;
69392;SDS011;56582;44.624;20.378;2023-04-24T22:48:02;14.57;;;9.95;;
69392;SDS011;56582;44.624;20.378;2023-04-24T22:50:33;17.42;;;11.50;;
69392;SDS011;56582;44.624;20.378;2023-04-24T22:53:06;19.40;;;11.23;;
69392;SDS011;56582;44.624;20.378;2023-04-24T22:55:40;17.10;;;10.20;;
69392;SDS011;56582;44.624;20.378;2023-04-24T22:58:08;17.08;;;10.13;;
69392;SDS011;56582;44.624;20.378;2023-04-24T23:00:36;14.20;;;10.23;;
69392;SDS011;56582;44.624;20.378;2023-04-24T23:03:02;15.73;;;10.73;;
69392;SDS011;56582;44.624;20.378;2023-04-24T23:05:33;14.52;;;9.70;;
69392;SDS011;56582;44.624;20.378;2023-04-24T23:07:58;16.77;;;11.10;;
69392;SDS011;56582;44.624;20.378;2023-04-24T23:10:26;21.25;;;11.68;;
69392;SDS011;56582;44.624;20.378;2023-04-24T23:12:52;17.40;;;10.63;;
69392;SDS011;56582;44.624;20.378;2023-04-24T23:15:18;15.93;;;10.17;;
69392;SDS011;56582;44.624;20.378;2023-04-24T23:17:43;12.80;;;8.37;;
69392;SDS011;56582;44.624;20.378;2023-04-24T23:20:09;12.43;;;8.90;;
69392;SDS011;56582;44.624;20.378;2023-04-24T23:22:41;13.80;;;9.67;;
69392;SDS011;56582;44.624;20.378;2023-04-24T23:25:09;14.18;;;9.85;;
69392;SDS011;56582;44.624;20.378;2023-04-24T23:27:35;13.95;;;9.60;;
69392;SDS011;56582;44.624;20.378;2023-04-24T23:30:04;15.10;;;10.45;;
69392;SDS011;56582;44.624;20.378;2023-04-24T23:32:32;14.75;;;10.35;;
69392;SDS011;56582;44.624;20.378;2023-04-24T23:35:10;15.60;;;10.03;;
69392;SDS011;56582;44.624;20.378;2023-04-24T23:37:44;18.38;;;10.82;;
69392;SDS011;56582;44.624;20.378;2023-04-24T23:40:16;14.60;;;9.70;;
69392;SDS011;56582;44.624;20.378;2023-04-24T23:42:50;14.25;;;9.27;;
69392;SDS011;56582;44.624;20.378;2023-04-24T23:45:21;15.87;;;10.30;;
69392;SDS011;56582;44.624;20.378;2023-04-24T23:47:47;16.95;;;10.43;;
69392;SDS011;56582;44.624;20.378;2023-04-24T23:50:17;15.30;;;10.85;;
69392;SDS011;56582;44.624;20.378;2023-04-24T23:52:42;13.20;;;9.77;;
69392;SDS011;56582;44.624;20.378;2023-04-24T23:55:29;12.18;;;9.57;;
69392;SDS011;56582;44.624;20.378;2023-04-24T23:58:00;12.45;;;7.57;;
